Time,TemperatureF,DewpointF,PressureIn,WindDirection,WindDirectionDegrees,WindSpeedMPH,WindSpeedGustMPH,Humidity,HourlyPrecipIn,Conditions,Clouds,dailyrainin,SoftwareType,DateUTC
2013-11-08 00:04:00,36.6,34.0,29.33,North,355,1.0,2.0,89,0.00,,,0.00,weatherlink.com 1.10,2013-11-08 05:04:00,
2013-11-08 00:19:00,36.4,34.0,29.34,North,355,0.0,2.0,90,0.00,,,0.00,weatherlink.com 1.10,2013-11-08 05:19:00,
2013-11-08 00:34:00,36.2,34.0,29.34,North,355,0.0,1.0,90,0.00,,,0.00,weatherlink.com 1.10,2013-11-08 05:34:00,
2013-11-08 00:49:00,36.0,33.0,29.34,North,360,1.0,1.0,90,0.00,,,0.00,weatherlink.com 1.10,2013-11-08 05:49:00,
2013-11-08 01:04:00,35.7,33.0,29.34,North,355,0.0,2.0,90,0.00,,,0.00,weatherlink.com 1.10,2013-11-08 06:04:00,
2013-11-08 01:19:00,35.5,33.0,29.34,North,355,1.0,2.0,90,0.00,,,0.00,weatherlink.com 1.10,2013-11-08 06:19:00,
2013-11-08 01:34:00,35.3,33.0,29.34,North,355,0.0,2.0,90,0.00,,,0.00,weatherlink.com 1.10,2013-11-08 06:34:00,
2013-11-08 01:49:00,35.1,33.0,29.34,North,360,1.0,2.0,90,0.00,,,0.00,weatherlink.com 1.10,2013-11-08 06:49:00,
2013-11-08 02:04:00,35.1,33.0,29.34,North,355,1.0,3.0,90,0.00,,,0.00,weatherlink.com 1.10,2013-11-08 07:04:00,
2013-11-08 02:19:00,35.1,33.0,29.34,North,355,1.0,2.0,90,0.00,,,0.00,weatherlink.com 1.10,2013-11-08 07:19:00,
2013-11-08 02:34:00,34.9,32.0,29.34,North,355,1.0,1.0,90,0.00,,,0.00,weatherlink.com 1.10,2013-11-08 07:34:00,
2013-11-08 02:49:00,34.8,32.0,29.34,North,355,0.0,2.0,89,0.00,,,0.00,weatherlink.com 1.10,2013-11-08 07:49:00,
2013-11-08 03:04:00,34.6,32.0,29.34,North,355,1.0,3.0,90,0.00,,,0.00,weatherlink.com 1.10,2013-11-08 08:04:00,
2013-11-08 03:19:00,34.5,32.0,29.34,North,355,0.0,2.0,90,0.00,,,0.00,weatherlink.com 1.10,2013-11-08 08:19:00,
2013-11-08 03:35:00,34.4,32.0,29.34,North,355,1.0,2.0,90,0.00,,,0.00,weatherlink.com 1.10,2013-11-08 08:35:00,
2013-11-08 03:50:00,34.2,32.0,29.34,North,355,1.0,3.0,90,0.00,,,0.00,weatherlink.com 1.10,2013-11-08 08:50:00,
2013-11-08 04:05:00,34.0,31.0,29.35,North,355,0.0,2.0,90,0.00,,,0.00,weatherlink.com 1.10,2013-11-08 09:05:00,
2013-11-08 04:20:00,33.6,31.0,29.35,North,360,0.0,2.0,90,0.00,,,0.00,weatherlink.com 1.10,2013-11-08 09:20:00,
2013-11-08 04:35:00,33.4,31.0,29.35,North,355,0.0,1.0,91,0.00,,,0.00,weatherlink.com 1.10,2013-11-08 09:35:00,
2013-11-08 04:50:00,33.1,31.0,29.36,North,355,0.0,2.0,91,0.00,,,0.00,weatherlink.com 1.10,2013-11-08 09:50:00,
2013-11-08 05:05:00,33.0,31.0,29.36,North,355,1.0,3.0,91,0.00,,,0.00,weatherlink.com 1.10,2013-11-08 10:05:00,
2013-11-08 05:20:00,33.0,31.0,29.36,NNW,339,2.0,3.0,91,0.00,,,0.00,weatherlink.com 1.10,2013-11-08 10:20:00,
2013-11-08 05:35:00,33.3,31.0,29.37,NNW,345,1.0,2.0,91,0.00,,,0.00,weatherlink.com 1.10,2013-11-08 10:35:00,
2013-11-08 05:50:00,33.4,31.0,29.37,NNW,344,1.0,3.0,90,0.00,,,0.00,weatherlink.com 1.10,2013-11-08 10:50:00,
2013-11-08 06:05:00,33.4,31.0,29.38,NNW,345,0.0,2.0,90,0.00,,,0.00,weatherlink.com 1.10,2013-11-08 11:05:00,
2013-11-08 06:20:00,33.2,31.0,29.38,North,360,0.0,2.0,90,0.00,,,0.00,weatherlink.com 1.10,2013-11-08 11:20:00,
2013-11-08 06:35:00,32.9,30.0,29.39,North,360,0.0,1.0,90,0.00,,,0.00,weatherlink.com 1.10,2013-11-08 11:35:00,
2013-11-08 06:50:00,32.6,30.0,29.39,NNW,345,1.0,1.0,90,0.00,,,0.00,weatherlink.com 1.10,2013-11-08 11:50:00,
2013-11-08 07:05:00,32.4,30.0,29.39,NNW,344,1.0,2.0,91,0.00,,,0.00,weatherlink.com 1.10,2013-11-08 12:05:00,
2013-11-08 07:20:00,32.3,30.0,29.40,NNW,345,0.0,2.0,91,0.00,,,0.00,weatherlink.com 1.10,2013-11-08 12:20:00,
2013-11-08 07:35:00,32.3,30.0,29.41,NNW,345,0.0,1.0,92,0.00,,,0.00,weatherlink.com 1.10,2013-11-08 12:35:00,
2013-11-08 07:50:00,32.4,30.0,29.41,North,360,0.0,1.0,92,0.00,,,0.00,weatherlink.com 1.10,2013-11-08 12:50:00,
2013-11-08 08:05:00,33.2,31.0,29.42,NNW,345,0.0,2.0,93,0.00,,,0.00,weatherlink.com 1.10,2013-11-08 13:05:00,
2013-11-08 08:20:00,34.9,33.0,29.43,NNW,345,1.0,2.0,92,0.00,,,0.00,weatherlink.com 1.10,2013-11-08 13:20:00,
2013-11-08 08:35:00,36.9,33.0,29.43,North,360,1.0,5.0,87,0.00,,,0.00,weatherlink.com 1.10,2013-11-08 13:35:00,
2013-11-08 08:50:00,38.8,34.0,29.43,North,360,2.0,6.0,82,0.00,,,0.00,weatherlink.com 1.10,2013-11-08 13:50:00,
2013-11-08 09:05:00,40.6,34.0,29.44,North,355,2.0,7.0,77,0.00,,,0.00,weatherlink.com 1.10,2013-11-08 14:05:00,
2013-11-08 09:20:00,42.3,34.0,29.44,NNW,328,3.0,6.0,72,0.00,,,0.00,weatherlink.com 1.10,2013-11-08 14:20:00,
2013-11-08 09:35:00,43.9,34.0,29.45,NNE,26,2.0,5.0,69,0.00,,,0.00,weatherlink.com 1.10,2013-11-08 14:35:00,
2013-11-08 09:50:00,45.3,34.0,29.46,NW,315,4.0,8.0,65,0.00,,,0.00,weatherlink.com 1.10,2013-11-08 14:50:00,
2013-11-08 10:06:00,46.8,33.0,29.46,North,9,2.0,8.0,60,0.00,,,0.00,weatherlink.com 1.10,2013-11-08 15:06:00,
2013-11-08 10:21:00,47.7,32.0,29.46,North,360,6.0,13.0,56,0.00,,,0.00,weatherlink.com 1.10,2013-11-08 15:21:00,
2013-11-08 10:36:00,48.5,31.0,29.45,NNE,32,5.0,11.0,51,0.00,,,0.00,weatherlink.com 1.10,2013-11-08 15:36:00,
2013-11-08 10:51:00,48.9,31.0,29.45,North,350,5.0,8.0,50,0.00,,,0.00,weatherlink.com 1.10,2013-11-08 15:51:00,
2013-11-08 11:06:00,49.4,32.0,29.45,NNW,331,2.0,13.0,51,0.00,,,0.00,weatherlink.com 1.10,2013-11-08 16:06:00,
2013-11-08 11:21:00,50.0,32.0,29.45,North,5,3.0,11.0,50,0.00,,,0.00,weatherlink.com 1.10,2013-11-08 16:21:00,
2013-11-08 11:36:00,50.6,31.0,29.44,NNW,327,1.0,12.0,47,0.00,,,0.00,weatherlink.com 1.10,2013-11-08 16:36:00,
2013-11-08 11:51:00,51.7,32.0,29.43,NW,320,6.0,13.0,47,0.00,,,0.00,weatherlink.com 1.10,2013-11-08 16:51:00,
2013-11-08 12:06:00,53.3,33.0,29.43,NNE,32,3.0,10.0,47,0.00,,,0.00,weatherlink.com 1.10,2013-11-08 17:06:00,
2013-11-08 12:21:00,54.6,34.0,29.42,North,360,5.0,9.0,46,0.00,,,0.00,weatherlink.com 1.10,2013-11-08 17:21:00,
2013-11-08 12:36:00,55.6,31.0,29.41,East,84,3.0,8.0,39,0.00,,,0.00,weatherlink.com 1.10,2013-11-08 17:36:00,
2013-11-08 12:51:00,56.5,32.0,29.40,North,360,4.0,11.0,39,0.00,,,0.00,weatherlink.com 1.10,2013-11-08 17:51:00,
2013-11-08 13:06:00,56.8,31.0,29.39,NNE,15,6.0,13.0,37,0.00,,,0.00,weatherlink.com 1.10,2013-11-08 18:06:00,
2013-11-08 13:21:00,56.2,29.0,29.38,NNW,338,6.0,12.0,36,0.00,,,0.00,weatherlink.com 1.10,2013-11-08 18:21:00,
2013-11-08 13:36:00,56.8,30.0,29.38,ENE,61,1.0,9.0,36,0.00,,,0.00,weatherlink.com 1.10,2013-11-08 18:36:00,
2013-11-08 13:51:00,57.4,34.0,29.37,NNE,13,1.0,8.0,41,0.00,,,0.00,weatherlink.com 1.10,2013-11-08 18:51:00,
2013-11-08 14:06:00,57.7,34.0,29.36,NNW,342,2.0,8.0,41,0.00,,,0.00,weatherlink.com 1.10,2013-11-08 19:06:00,
2013-11-08 14:21:00,57.5,31.0,29.36,North,360,1.0,10.0,37,0.00,,,0.00,weatherlink.com 1.10,2013-11-08 19:21:00,
2013-11-08 14:36:00,57.3,30.0,29.36,NW,325,10.0,11.0,36,0.00,,,0.00,weatherlink.com 1.10,2013-11-08 19:36:00,
2013-11-08 14:51:00,57.5,28.0,29.36,NE,44,3.0,9.0,32,0.00,,,0.00,weatherlink.com 1.10,2013-11-08 19:51:00,
2013-11-08 15:06:00,58.2,29.0,29.36,NNW,344,2.0,7.0,33,0.00,,,0.00,weatherlink.com 1.10,2013-11-08 20:06:00,
2013-11-08 15:21:00,58.6,31.0,29.35,North,360,3.0,6.0,35,0.00,,,0.00,weatherlink.com 1.10,2013-11-08 20:21:00,
2013-11-08 15:36:00,59.4,27.0,29.35,North,5,1.0,11.0,29,0.00,,,0.00,weatherlink.com 1.10,2013-11-08 20:36:00,
2013-11-08 15:51:00,59.3,29.0,29.35,WNW,300,2.0,7.0,32,0.00,,,0.00,weatherlink.com 1.10,2013-11-08 20:51:00,
2013-11-08 16:06:00,58.7,30.0,29.35,North,360,5.0,5.0,34,0.00,,,0.00,weatherlink.com 1.10,2013-11-08 21:06:00,
2013-11-08 16:21:00,58.9,27.0,29.35,NNW,344,3.0,4.0,30,0.00,,,0.00,weatherlink.com 1.10,2013-11-08 21:21:00,
2013-11-08 16:36:00,58.3,28.0,29.34,NE,56,2.0,5.0,32,0.00,,,0.00,weatherlink.com 1.10,2013-11-08 21:36:00,
2013-11-08 16:51:00,55.9,28.0,29.34,ENE,78,2.0,3.0,35,0.00,,,0.00,weatherlink.com 1.10,2013-11-08 21:51:00,
2013-11-08 17:06:00,54.8,27.0,29.34,NNE,16,0.0,3.0,35,0.00,,,0.00,weatherlink.com 1.10,2013-11-08 22:06:00,
2013-11-08 17:21:00,53.7,29.0,29.34,NNE,22,1.0,2.0,39,0.00,,,0.00,weatherlink.com 1.10,2013-11-08 22:21:00,
2013-11-08 17:36:00,52.4,30.0,29.34,NNE,22,0.0,1.0,42,0.00,,,0.00,weatherlink.com 1.10,2013-11-08 22:36:00,
2013-11-08 17:51:00,50.5,32.0,29.34,NNE,22,1.0,2.0,50,0.00,,,0.00,weatherlink.com 1.10,2013-11-08 22:51:00,
2013-11-08 18:06:00,48.3,32.0,29.33,NNE,22,0.0,2.0,54,0.00,,,0.00,weatherlink.com 1.10,2013-11-08 23:06:00,
2013-11-08 18:21:00,46.8,33.0,29.34,NNE,22,2.0,3.0,58,0.00,,,0.00,weatherlink.com 1.10,2013-11-08 23:21:00,
2013-11-08 18:36:00,45.4,32.0,29.34,North,360,2.0,3.0,61,0.00,,,0.00,weatherlink.com 1.10,2013-11-08 23:36:00,
2013-11-08 18:51:00,44.3,32.0,29.34,North,360,2.0,3.0,63,0.00,,,0.00,weatherlink.com 1.10,2013-11-08 23:51:00,
2013-11-08 19:07:00,43.6,31.0,29.34,North,360,3.0,3.0,62,0.00,,,0.00,weatherlink.com 1.10,2013-11-09 00:07:00,
2013-11-08 19:21:00,43.1,32.0,29.34,North,360,2.0,3.0,65,0.00,,,0.00,weatherlink.com 1.10,2013-11-09 00:21:00,
2013-11-08 19:36:00,42.6,32.0,29.34,NNW,346,4.0,5.0,66,0.00,,,0.00,weatherlink.com 1.10,2013-11-09 00:36:00,
2013-11-08 19:51:00,42.2,33.0,29.34,NNW,346,2.0,2.0,70,0.00,,,0.00,weatherlink.com 1.10,2013-11-09 00:51:00,
2013-11-08 20:06:00,41.8,32.0,29.34,NNW,346,1.0,4.0,68,0.00,,,0.00,weatherlink.com 1.10,2013-11-09 01:06:00,
2013-11-08 20:21:00,41.5,31.0,29.34,NNW,346,1.0,3.0,67,0.00,,,0.00,weatherlink.com 1.10,2013-11-09 01:21:00,
2013-11-08 20:36:00,41.2,32.0,29.34,NNW,346,0.0,3.0,71,0.00,,,0.00,weatherlink.com 1.10,2013-11-09 01:36:00,
2013-11-08 20:51:00,40.8,32.0,29.34,North,360,0.0,2.0,72,0.00,,,0.00,weatherlink.com 1.10,2013-11-09 01:51:00,
2013-11-08 21:06:00,40.3,32.0,29.34,NNW,346,0.0,2.0,73,0.00,,,0.00,weatherlink.com 1.10,2013-11-09 02:06:00,
2013-11-08 21:21:00,39.6,32.0,29.34,NNW,346,1.0,3.0,74,0.00,,,0.00,weatherlink.com 1.10,2013-11-09 02:21:00,
2013-11-08 21:36:00,39.0,32.0,29.33,NNW,346,1.0,3.0,75,0.00,,,0.00,weatherlink.com 1.10,2013-11-09 02:36:00,
2013-11-08 21:51:00,38.7,32.0,29.33,NNW,346,2.0,3.0,77,0.00,,,0.00,weatherlink.com 1.10,2013-11-09 02:51:00,
2013-11-08 22:06:00,38.3,32.0,29.34,NNW,346,0.0,3.0,78,0.00,,,0.00,weatherlink.com 1.10,2013-11-09 03:06:00,
2013-11-08 22:21:00,38.0,32.0,29.35,NNW,346,0.0,2.0,78,0.00,,,0.00,weatherlink.com 1.10,2013-11-09 03:21:00,
2013-11-08 22:36:00,37.5,32.0,29.34,NNW,346,0.0,0.0,79,0.00,,,0.00,weatherlink.com 1.10,2013-11-09 03:36:00,
2013-11-08 22:52:00,36.8,32.0,29.33,NNW,346,2.0,2.0,81,0.00,,,0.00,weatherlink.com 1.10,2013-11-09 03:52:00,
2013-11-08 23:07:00,36.5,32.0,29.33,NNW,346,0.0,0.0,83,0.00,,,0.00,weatherlink.com 1.10,2013-11-09 04:07:00,
2013-11-08 23:22:00,36.4,32.0,29.34,NNW,346,0.0,1.0,84,0.00,,,0.00,weatherlink.com 1.10,2013-11-09 04:22:00,
2013-11-08 23:37:00,36.0,32.0,29.33,NNW,346,0.0,0.0,84,0.00,,,0.00,weatherlink.com 1.10,2013-11-09 04:37:00,
2013-11-08 23:52:00,35.8,32.0,29.34,NNW,346,0.0,1.0,85,0.00,,,0.00,weatherlink.com 1.10,2013-11-09 04:52:00,